Time;durP1;ratioP1;P1;durP2;ratioP2;P2;SDS_P1;SDS_P2;PMS_P1;PMS_P2;Temp;Humidity;BMP_temperature;BMP_pressure;BME280_temperature;BME280_humidity;BME280_pressure;Samples;Min_cycle;Max_cycle;Signal;HPM_P1;HPM_P2
2021/07/23 00:00:15;;;;;;;20.57;17.70;;;;;;;15.40;82.53;99225.22;125015;1092;64287;-77
2021/07/23 00:03:02;;;;;;;20.63;17.67;;;;;;;15.40;82.60;99221.69;125050;1093;64313;-76
2021/07/23 00:05:29;;;;;;;22.00;18.43;;;;;;;15.41;82.60;99216.20;125022;1093;64265;-76
2021/07/23 00:07:57;;;;;;;22.07;18.40;;;;;;;15.46;82.72;99221.20;125012;1092;64239;-76
2021/07/23 00:10:24;;;;;;;21.43;18.60;;;;;;;15.46;82.67;99222.05;125022;1092;64268;-76
2021/07/23 00:12:51;;;;;;;22.20;19.80;;;;;;;15.35;82.16;99216.73;125033;1093;64274;-76
2021/07/23 00:15:19;;;;;;;25.43;21.40;;;;;;;15.28;82.67;99215.52;125027;1093;64242;-76
2021/07/23 00:17:46;;;;;;;22.10;19.03;;;;;;;15.22;82.63;99216.89;125050;1093;64284;-76
2021/07/23 00:20:13;;;;;;;23.43;19.60;;;;;;;15.24;82.92;99212.22;125029;1093;64290;-76
2021/07/23 00:22:40;;;;;;;21.13;17.13;;;;;;;15.24;82.61;99214.05;125059;1093;64188;-76
2021/07/23 00:25:08;;;;;;;18.97;17.07;;;;;;;15.21;82.74;99212.48;125029;1093;64223;-76
2021/07/23 00:27:36;;;;;;;22.60;19.10;;;;;;;15.27;83.54;99211.11;125017;1093;64348;-76
2021/07/23 00:30:06;;;;;;;23.00;17.83;;;;;;;15.38;83.54;99208.41;125031;1093;64306;-77
2021/07/23 00:32:36;;;;;;;19.23;17.17;;;;;;;15.42;82.84;99211.68;125044;1093;64280;-77
2021/07/23 00:35:04;;;;;;;21.33;17.77;;;;;;;15.41;82.92;99212.67;125052;1093;64268;-76
2021/07/23 00:37:31;;;;;;;23.93;19.03;;;;;;;15.35;82.79;99214.89;124990;1093;64265;-76
2021/07/23 00:39:58;;;;;;;22.67;18.67;;;;;;;15.31;82.78;99212.58;124984;1093;64276;-76
2021/07/23 00:42:41;;;;;;;20.00;18.00;;;;;;;15.24;82.82;99212.22;125006;1093;64265;-76
2021/07/23 00:45:10;;;;;;;22.63;20.23;;;;;;;15.17;83.06;99210.20;125011;1092;64303;-76
2021/07/23 00:47:39;;;;;;;23.30;19.80;;;;;;;15.15;83.29;99205.78;125088;1092;64312;-76
2021/07/23 00:50:07;;;;;;;23.30;19.43;;;;;;;15.18;83.41;99209.20;125041;1091;64210;-76
2021/07/23 00:52:35;;;;;;;23.70;21.10;;;;;;;15.17;83.36;99211.05;125060;1092;64310;-78
2021/07/23 00:55:03;;;;;;;25.50;20.47;;;;;;;15.17;83.42;99207.52;125029;1093;64325;-76
2021/07/23 00:57:31;;;;;;;25.10;19.57;;;;;;;15.17;83.31;99207.52;125023;1092;64743;-76
2021/07/23 01:00:01;;;;;;;23.27;19.37;;;;;;;15.19;83.69;99203.69;125062;1093;64287;-76
2021/07/23 01:02:29;;;;;;;22.48;18.85;;;;;;;15.21;83.73;99201.73;125086;1091;64290;-77
2021/07/23 01:04:56;;;;;;;23.50;18.70;;;;;;;15.24;83.70;99206.00;125048;1093;64322;-76
2021/07/23 01:07:24;;;;;;;24.07;18.80;;;;;;;15.20;83.71;99201.88;125089;1093;64219;-76
2021/07/23 01:09:52;;;;;;;28.67;19.17;;;;;;;15.19;83.65;99201.00;124991;1093;64247;-76
2021/07/23 01:12:19;;;;;;;24.27;19.53;;;;;;;15.22;84.00;99195.41;125017;1092;64357;-76
2021/07/23 01:14:46;;;;;;;23.37;19.60;;;;;;;15.29;84.11;99204.64;125026;1092;64287;-76
2021/07/23 01:17:15;;;;;;;24.00;19.13;;;;;;;15.31;83.94;99200.00;124995;1092;64194;-77
2021/07/23 01:20:16;;;;;;;22.97;19.20;;;;;;;15.30;84.39;99203.67;125029;1093;64418;-77
2021/07/23 01:22:44;;;;;;;21.23;18.57;;;;;;;15.33;84.26;99198.05;125068;1093;64211;-77
2021/07/23 01:25:13;;;;;;;25.57;18.57;;;;;;;15.37;84.48;99196.79;125089;1093;64177;-77
2021/07/23 01:27:46;;;;;;;21.63;17.00;;;;;;;15.42;84.47;99195.56;125112;1093;64287;-76
2021/07/23 01:30:15;;;;;;;23.10;18.87;;;;;;;15.42;84.45;99193.73;124984;1092;64271;-76
2021/07/23 01:32:42;;;;;;;22.27;19.03;;;;;;;15.46;84.61;99191.66;124987;1092;64369;-76
2021/07/23 01:35:13;;;;;;;28.70;21.97;;;;;;;15.44;84.67;99186.41;124971;1092;64184;-79
2021/07/23 01:37:41;;;;;;;28.13;22.07;;;;;;;15.48;84.77;99192.36;125114;1092;64207;-77
2021/07/23 01:40:09;;;;;;;24.67;22.13;;;;;;;15.55;84.85;99188.18;125047;1093;64249;-77
2021/07/23 01:42:37;;;;;;;25.67;21.63;;;;;;;15.65;84.83;99181.05;125024;1093;64284;-77
2021/07/23 01:45:05;;;;;;;32.25;23.45;;;;;;;15.71;85.38;99183.23;125071;1093;64213;-77
2021/07/23 01:47:33;;;;;;;27.23;22.90;;;;;;;15.71;85.23;99174.33;125104;1093;64218;-76
2021/07/23 01:50:00;;;;;;;27.05;22.50;;;;;;;15.70;85.36;99175.32;125030;1092;64264;-75
2021/07/23 01:52:29;;;;;;;27.20;20.70;;;;;;;15.66;85.33;99174.68;125044;1091;64386;-76
2021/07/23 01:54:56;;;;;;;24.00;21.40;;;;;;;15.70;85.38;99169.95;125019;1093;64255;-76
2021/07/23 01:57:23;;;;;;;22.03;19.70;;;;;;;15.75;85.32;99173.94;125023;1093;64386;-76
2021/07/23 01:59:50;;;;;;;23.50;20.47;;;;;;;15.79;85.31;99169.14;124991;1093;64389;-76
2021/07/23 02:02:18;;;;;;;23.75;19.60;;;;;;;15.81;85.44;99164.50;125014;1092;64284;-76
2021/07/23 02:04:45;;;;;;;23.87;19.60;;;;;;;15.81;85.50;99159.13;124980;1093;64759;-75
2021/07/23 02:07:12;;;;;;;20.50;18.40;;;;;;;15.85;85.70;99160.58;124992;1093;64262;-75
2021/07/23 02:09:39;;;;;;;21.47;19.27;;;;;;;15.91;85.67;99161.88;125067;1092;64348;-75
2021/07/23 02:12:06;;;;;;;20.47;17.77;;;;;;;15.92;85.33;99169.80;125066;1093;64242;-76
2021/07/23 02:14:33;;;;;;;22.20;17.50;;;;;;;15.89;85.32;99172.75;125015;1091;64287;-76
2021/07/23 02:17:00;;;;;;;23.80;19.77;;;;;;;15.87;85.64;99171.17;125035;1093;64268;-76
2021/07/23 02:19:28;;;;;;;24.33;20.83;;;;;;;15.82;85.64;99171.56;124952;1093;64267;-76
2021/07/23 02:21:55;;;;;;;26.63;23.00;;;;;;;15.83;85.42;99167.91;124964;1091;64791;-76
2021/07/23 02:24:22;;;;;;;23.60;21.10;;;;;;;15.82;85.86;99170.72;125064;1093;64242;-76
2021/07/23 02:26:49;;;;;;;24.57;20.93;;;;;;;15.81;85.47;99183.31;125080;1093;64287;-76
2021/07/23 02:29:16;;;;;;;22.63;20.23;;;;;;;15.83;85.83;99181.35;125028;1093;64291;-76
2021/07/23 02:31:44;;;;;;;25.07;21.57;;;;;;;15.77;85.96;99173.80;125085;1093;64211;-76
2021/07/23 02:34:11;;;;;;;24.00;21.40;;;;;;;15.75;86.31;99184.69;125103;1093;64330;-76
2021/07/23 02:36:38;;;;;;;23.70;21.17;;;;;;;15.75;86.21;99179.31;125035;1093;64360;-76
2021/07/23 02:39:05;;;;;;;24.53;21.90;;;;;;;15.71;86.86;99172.48;125022;1092;64243;-76
2021/07/23 02:41:32;;;;;;;25.07;22.37;;;;;;;15.72;86.71;99170.67;125034;1093;64332;-76
2021/07/23 02:43:59;;;;;;;23.77;20.87;;;;;;;15.71;87.40;99160.89;125048;1093;64364;-76
2021/07/23 02:46:27;;;;;;;29.77;23.13;;;;;;;15.68;87.33;99164.66;125070;1092;64367;-76
2021/07/23 02:48:54;;;;;;;25.87;22.03;;;;;;;15.75;87.51;99159.66;125043;1093;64336;-76
2021/07/23 02:51:21;;;;;;;28.97;22.57;;;;;;;15.80;87.53;99163.66;125109;1093;64290;-76
2021/07/23 02:53:48;;;;;;;26.03;23.17;;;;;;;15.87;87.80;99155.90;125107;1093;64284;-76
2021/07/23 02:56:15;;;;;;;28.10;22.83;;;;;;;15.95;87.64;99156.08;124980;1093;64293;-76
2021/07/23 02:58:46;;;;;;;23.07;20.63;;;;;;;16.01;87.83;99155.57;125078;1093;64332;-76
2021/07/23 03:01:13;;;;;;;28.07;23.80;;;;;;;16.02;87.50;99159.95;125045;1092;64216;-76
2021/07/23 03:03:41;;;;;;;27.50;22.70;;;;;;;16.09;87.53;99156.72;125011;1093;64259;-76
2021/07/23 03:06:08;;;;;;;24.77;21.83;;;;;;;16.08;87.79;99160.41;125052;1092;64267;-76
2021/07/23 03:08:36;;;;;;;25.10;22.23;;;;;;;16.03;87.75;99160.80;125033;1093;64428;-76
2021/07/23 03:11:03;;;;;;;25.27;21.93;;;;;;;16.01;87.81;99152.04;125016;1092;64272;-75
2021/07/23 03:13:31;;;;;;;30.97;23.97;;;;;;;15.98;88.07;99150.47;125045;1093;64268;-76
2021/07/23 03:15:58;;;;;;;25.43;21.80;;;;;;;15.95;88.15;99157.92;125022;1092;64283;-76
2021/07/23 03:18:25;;;;;;;24.53;20.47;;;;;;;15.91;88.44;99151.13;125017;1093;64220;-77
2021/07/23 03:20:53;;;;;;;24.80;22.00;;;;;;;15.89;88.44;99150.41;125067;1093;64267;-77
2021/07/23 03:23:20;;;;;;;27.40;23.50;;;;;;;15.91;88.05;99157.34;125115;1093;64377;-77
2021/07/23 03:25:47;;;;;;;28.87;23.30;;;;;;;15.94;88.56;99157.08;125091;1093;64249;-77
2021/07/23 03:28:14;;;;;;;25.67;22.80;;;;;;;15.97;88.56;99148.75;125101;1093;64265;-76
2021/07/23 03:30:42;;;;;;;25.50;22.60;;;;;;;15.99;88.84;99152.16;125107;1093;64326;-76
2021/07/23 03:33:09;;;;;;;24.67;22.13;;;;;;;16.00;88.96;99151.16;125070;1093;64239;-76
2021/07/23 03:35:36;;;;;;;23.50;21.07;;;;;;;16.03;88.83;99150.05;125080;1093;64402;-77
2021/07/23 03:38:03;;;;;;;22.90;20.50;;;;;;;16.07;88.85;99153.34;125126;1093;64383;-76
2021/07/23 03:40:30;;;;;;;25.33;21.67;;;;;;;16.12;88.93;99145.72;125037;1093;64279;-76
2021/07/23 03:42:57;;;;;;;25.83;21.77;;;;;;;16.17;89.09;99146.17;124889;1093;64281;-76
2021/07/23 03:45:24;;;;;;;23.00;20.60;;;;;;;16.18;88.75;99145.17;125085;1092;64268;-76
2021/07/23 03:47:51;;;;;;;25.00;22.23;;;;;;;16.20;88.73;99148.59;125052;1093;64341;-76
2021/07/23 03:50:18;;;;;;;25.90;23.00;;;;;;;16.22;89.00;99144.78;125040;1093;64287;-76
2021/07/23 03:52:45;;;;;;;25.87;23.17;;;;;;;16.22;88.92;99147.47;125037;1092;64152;-76
2021/07/23 03:55:13;;;;;;;23.87;21.30;;;;;;;16.30;89.16;99140.54;125042;1091;64249;-76
2021/07/23 03:57:40;;;;;;;24.40;21.87;;;;;;;16.37;89.28;99139.86;125026;1093;64605;-76
2021/07/23 04:00:08;;;;;;;26.83;21.40;;;;;;;16.48;89.08;99149.67;125070;1093;64341;-77
2021/07/23 04:02:36;;;;;;;25.67;22.17;;;;;;;16.50;88.58;99147.70;125097;1093;64241;-77
2021/07/23 04:05:04;;;;;;;24.33;20.10;;;;;;;16.56;88.90;99139.10;125041;1092;64287;-77
2021/07/23 04:07:31;;;;;;;23.47;20.97;;;;;;;16.63;88.75;99140.23;125013;1093;64242;-77
2021/07/23 04:10:01;;;;;;;21.93;19.63;;;;;;;16.70;88.60;99145.93;124986;1092;64343;-78
2021/07/23 04:12:28;;;;;;;23.75;20.00;;;;;;;16.73;88.80;99145.64;125103;1093;64267;-76
2021/07/23 04:14:56;;;;;;;25.20;22.40;;;;;;;16.78;88.64;99142.58;125041;1092;64310;-76
2021/07/23 04:17:23;;;;;;;23.43;20.90;;;;;;;16.83;88.07;99146.55;125085;1093;64283;-77
2021/07/23 04:19:50;;;;;;;22.40;20.17;;;;;;;16.89;88.44;99137.91;125018;1093;64284;-77
2021/07/23 04:22:17;;;;;;;23.90;21.20;;;;;;;16.99;88.22;99142.48;125007;1093;64281;-76
2021/07/23 04:24:44;;;;;;;25.07;21.00;;;;;;;17.05;87.94;99147.29;125069;1093;64683;-76
2021/07/23 04:27:13;;;;;;;26.23;23.10;;;;;;;17.07;88.08;99148.01;125065;1093;64278;-76
2021/07/23 04:29:44;;;;;;;27.40;24.33;;;;;;;17.13;87.94;99141.20;125098;1093;64262;-76
2021/07/23 04:32:11;;;;;;;27.17;23.60;;;;;;;17.18;87.72;99142.48;125098;1093;64271;-80
2021/07/23 04:34:39;;;;;;;28.40;23.53;;;;;;;17.28;87.57;99137.10;125186;1093;64481;-77
2021/07/23 04:37:06;;;;;;;30.53;24.23;;;;;;;17.44;87.70;99131.98;125021;1093;64424;-76
2021/07/23 04:39:33;;;;;;;26.73;23.30;;;;;;;17.59;87.33;99131.53;125035;1092;64290;-78
2021/07/23 04:42:05;;;;;;;27.23;24.20;;;;;;;17.70;86.79;99131.39;125087;1093;64698;-77
2021/07/23 04:44:32;;;;;;;30.17;23.80;;;;;;;17.83;86.43;99128.42;125083;1093;64287;-76
2021/07/23 04:47:00;;;;;;;30.63;24.03;;;;;;;17.81;85.75;99135.80;125043;1093;64187;-76
2021/07/23 04:49:28;;;;;;;29.55;23.05;;;;;;;17.83;85.80;99131.96;125054;1093;64242;-76
2021/07/23 04:51:55;;;;;;;25.90;22.30;;;;;;;17.95;86.16;99122.69;125044;1093;64283;-77
2021/07/23 04:54:23;;;;;;;27.00;22.85;;;;;;;18.07;86.11;99127.92;125043;1093;64274;-76
2021/07/23 04:56:52;;;;;;;25.53;22.83;;;;;;;18.21;86.19;99120.19;125050;1092;64281;-75
2021/07/23 04:59:20;;;;;;;25.48;22.78;;;;;;;18.35;86.06;99124.27;125043;1092;64202;-75
2021/07/23 05:01:47;;;;;;;27.70;24.30;;;;;;;18.42;85.04;99130.74;125019;1093;64794;-77
2021/07/23 05:04:15;;;;;;;28.23;25.30;;;;;;;18.45;85.29;99124.20;125033;1092;64270;-77
2021/07/23 05:06:42;;;;;;;28.40;23.47;;;;;;;18.53;84.47;99113.49;125022;1092;64302;-77
2021/07/23 05:09:10;;;;;;;25.17;22.47;;;;;;;18.68;84.75;99118.41;125073;1093;64268;-77
2021/07/23 05:11:38;;;;;;;26.50;23.50;;;;;;;18.81;84.38;99116.22;124991;1093;64351;-77
2021/07/23 05:14:07;;;;;;;24.10;21.60;;;;;;;18.98;83.69;99118.07;125000;1093;64391;-77
2021/07/23 05:16:36;;;;;;;25.07;22.47;;;;;;;19.16;83.33;99118.08;125007;1092;64242;-77
2021/07/23 05:19:05;;;;;;;24.20;21.60;;;;;;;19.23;83.17;99121.88;125082;1093;64280;-77
2021/07/23 05:21:35;;;;;;;22.13;19.73;;;;;;;19.30;82.47;99125.66;125152;1092;64219;-77
2021/07/23 05:24:05;;;;;;;20.87;18.77;;;;;;;19.37;82.05;99119.63;125046;1093;64427;-77
2021/07/23 05:26:37;;;;;;;21.60;19.18;;;;;;;19.51;81.96;99121.78;125075;1091;64736;-77
2021/07/23 05:29:06;;;;;;;21.87;19.67;;;;;;;19.66;81.02;99120.22;125165;1092;64284;-77
2021/07/23 05:31:34;;;;;;;23.07;20.60;;;;;;;19.69;80.59;99119.06;125122;1093;64357;-77
2021/07/23 05:34:02;;;;;;;21.60;19.00;;;;;;;19.84;80.51;99120.19;125121;1093;64184;-76
2021/07/23 05:36:29;;;;;;;21.27;19.00;;;;;;;20.04;80.04;99126.23;124969;1093;64402;-77
2021/07/23 05:38:56;;;;;;;21.23;18.57;;;;;;;20.15;79.94;99120.55;124984;1093;64264;-77
2021/07/23 05:41:24;;;;;;;20.55;18.35;;;;;;;20.30;79.28;99118.09;125007;1093;64280;-78
2021/07/23 05:43:51;;;;;;;20.63;18.43;;;;;;;20.46;79.52;99111.91;124995;1091;64210;-79
2021/07/23 05:46:18;;;;;;;21.05;18.90;;;;;;;20.61;78.45;99114.84;124984;1093;64290;-76
2021/07/23 05:48:45;;;;;;;21.50;19.40;;;;;;;20.67;77.89;99114.21;125044;1093;64345;-76
2021/07/23 05:51:12;;;;;;;21.50;19.30;;;;;;;20.79;77.84;99112.03;124990;1093;64267;-78
2021/07/23 05:53:40;;;;;;;21.10;18.90;;;;;;;21.01;77.58;99119.55;124989;1093;64302;-77
2021/07/23 05:56:07;;;;;;;20.03;17.93;;;;;;;21.23;76.88;99117.20;125020;1093;64263;-77
2021/07/23 05:58:35;;;;;;;18.55;16.80;;;;;;;21.44;76.41;99106.73;124991;1091;64177;-76
2021/07/23 06:01:07;;;;;;;20.73;18.47;;;;;;;21.66;76.11;99110.61;125021;1093;64334;-76
2021/07/23 06:03:35;;;;;;;17.90;16.03;;;;;;;21.88;75.27;99109.08;125045;1093;64395;-76
2021/07/23 06:06:03;;;;;;;18.23;15.80;;;;;;;22.04;74.61;99108.19;125017;1093;64283;-76
2021/07/23 06:08:30;;;;;;;19.37;15.87;;;;;;;22.14;73.60;99114.28;125011;1093;64270;-76
2021/07/23 06:11:07;;;;;;;17.97;16.10;;;;;;;22.34;73.86;99111.17;125043;1093;64281;-76
2021/07/23 06:13:37;;;;;;;20.33;17.80;;;;;;;22.77;72.87;99106.22;124956;1093;64363;-76
2021/07/23 06:16:05;;;;;;;20.18;18.10;;;;;;;22.83;71.87;99107.38;125022;1093;64275;-75
2021/07/23 06:18:33;;;;;;;20.27;18.27;;;;;;;22.92;71.74;99109.03;125036;1092;64284;-76
2021/07/23 06:21:00;;;;;;;20.17;17.53;;;;;;;23.26;71.31;99111.38;125005;1093;64159;-76
2021/07/23 06:23:30;;;;;;;18.73;16.87;;;;;;;24.12;68.97;99109.27;125022;1093;64284;-77
2021/07/23 06:26:00;;;;;;;17.40;15.63;;;;;;;24.15;68.54;99111.61;125027;1093;64329;-76
2021/07/23 06:28:27;;;;;;;17.20;15.50;;;;;;;24.10;68.66;99111.33;125045;1093;64268;-76
2021/07/23 06:31:03;;;;;;;17.83;15.97;;;;;;;24.30;68.30;99111.59;125008;1093;64300;-77
2021/07/23 06:33:31;;;;;;;18.23;16.30;;;;;;;24.44;67.94;99108.07;125108;1092;64268;-76
2021/07/23 06:36:02;;;;;;;16.40;14.73;;;;;;;24.61;67.26;99114.14;125018;1093;64271;-77
2021/07/23 06:38:29;;;;;;;16.23;14.63;;;;;;;24.80;66.55;99117.31;124994;1093;64215;-77
2021/07/23 06:40:56;;;;;;;15.23;13.83;;;;;;;24.97;66.50;99108.71;125084;1093;64332;-77
2021/07/23 06:43:23;;;;;;;15.63;14.07;;;;;;;24.98;66.04;99113.11;125010;1093;64284;-77
2021/07/23 06:45:55;;;;;;;16.97;14.83;;;;;;;25.19;65.31;99111.48;125019;1093;64281;-77
2021/07/23 06:48:22;;;;;;;16.97;14.80;;;;;;;25.06;63.74;99105.86;125062;1092;64291;-77
2021/07/23 06:50:49;;;;;;;16.43;14.83;;;;;;;25.10;63.88;99112.63;125057;1093;64476;-77
2021/07/23 06:53:18;;;;;;;15.83;14.23;;;;;;;25.17;63.76;99114.43;125033;1093;64298;-77
2021/07/23 06:55:46;;;;;;;16.43;14.47;;;;;;;25.08;63.25;99104.63;125042;1093;64251;-75
2021/07/23 06:58:13;;;;;;;15.63;14.10;;;;;;;25.09;63.26;99105.47;125069;1093;64267;-77
2021/07/23 07:00:41;;;;;;;16.40;14.07;;;;;;;25.22;63.56;99102.08;125026;1093;64191;-77
2021/07/23 07:03:08;;;;;;;15.20;13.67;;;;;;;25.33;62.98;99105.14;124995;1093;64364;-77
2021/07/23 07:05:35;;;;;;;17.23;14.77;;;;;;;25.49;63.03;99103.16;125014;1092;64221;-77
2021/07/23 07:08:03;;;;;;;16.77;15.07;;;;;;;25.63;62.46;99100.36;125045;1093;64217;-77
2021/07/23 07:10:30;;;;;;;16.77;15.00;;;;;;;25.70;61.83;99099.56;125019;1092;64233;-76
2021/07/23 07:12:59;;;;;;;15.03;13.47;;;;;;;25.57;61.32;99098.43;125025;1093;64421;-76
2021/07/23 07:15:26;;;;;;;15.37;13.77;;;;;;;25.65;60.91;99100.17;125022;1093;64293;-75
2021/07/23 07:17:58;;;;;;;14.70;13.27;;;;;;;25.83;60.77;99100.53;125013;1093;64309;-76
2021/07/23 07:20:26;;;;;;;14.83;13.30;;;;;;;26.00;60.71;99102.98;124976;1093;64268;-77
2021/07/23 07:22:54;;;;;;;14.77;13.10;;;;;;;26.02;59.97;99096.28;125071;1092;64268;-77
2021/07/23 07:25:23;;;;;;;13.20;12.03;;;;;;;26.02;59.80;99090.81;125098;1093;65731;-76
2021/07/23 07:27:53;;;;;;;17.13;14.20;;;;;;;26.19;59.58;99098.69;125003;1092;64188;-77
2021/07/23 07:30:21;;;;;;;17.70;13.47;;;;;;;26.31;59.32;99099.82;125052;1093;64287;-77
2021/07/23 07:32:48;;;;;;;16.73;15.03;;;;;;;26.30;57.78;99098.11;125027;1091;64268;-77
2021/07/23 07:35:16;;;;;;;14.43;13.20;;;;;;;26.15;58.71;99095.52;125041;1093;64284;-77
2021/07/23 07:37:43;;;;;;;14.57;13.07;;;;;;;26.27;58.54;99087.59;124999;1093;64272;-77
2021/07/23 07:40:11;;;;;;;15.30;12.90;;;;;;;26.46;58.67;99099.66;125021;1093;64434;-77
2021/07/23 07:42:38;;;;;;;14.90;13.20;;;;;;;26.57;58.51;99090.08;125000;1093;64223;-77
2021/07/23 07:45:06;;;;;;;16.00;14.30;;;;;;;26.70;58.23;99090.16;125060;1093;64303;-77
2021/07/23 07:47:33;;;;;;;16.07;14.43;;;;;;;26.80;57.54;99087.02;124994;1093;64268;-77
2021/07/23 07:50:00;;;;;;;17.13;14.23;;;;;;;26.88;57.48;99081.36;125044;1092;64284;-77
2021/07/23 07:52:28;;;;;;;22.55;14.95;;;;;;;27.00;57.61;99085.19;124994;1093;64492;-77
2021/07/23 07:54:55;;;;;;;21.03;15.40;;;;;;;27.09;57.62;99083.96;125013;1093;64180;-77
2021/07/23 07:57:23;;;;;;;20.20;14.83;;;;;;;27.28;57.09;99092.45;125009;1093;64271;-77
2021/07/23 07:59:50;;;;;;;21.83;16.17;;;;;;;27.36;55.27;99086.77;125043;1093;64279;-77
2021/07/23 08:02:18;;;;;;;17.37;15.67;;;;;;;27.26;55.48;99086.33;125019;1092;64211;-77
2021/07/23 08:04:45;;;;;;;22.20;17.03;;;;;;;27.16;55.20;99086.70;124994;1093;64362;-77
2021/07/23 08:07:18;;;;;;;18.40;16.00;;;;;;;27.20;54.88;99082.54;125051;1093;64277;-77
2021/07/23 08:09:52;;;;;;;20.07;17.43;;;;;;;27.22;54.39;99082.31;125022;1091;64239;-77
2021/07/23 08:12:20;;;;;;;19.53;15.80;;;;;;;27.17;54.12;99088.41;125072;1093;64295;-76
2021/07/23 08:14:47;;;;;;;19.87;17.60;;;;;;;26.87;54.12;99085.99;124970;1091;64293;-76
2021/07/23 08:17:15;;;;;;;20.07;16.87;;;;;;;26.80;54.47;99082.38;124997;1093;64357;-76
2021/07/23 08:19:42;;;;;;;21.40;16.53;;;;;;;26.84;54.71;99083.67;125036;1093;64333;-76
2021/07/23 08:22:10;;;;;;;22.77;17.77;;;;;;;27.01;54.57;99081.39;125035;1093;64283;-84
2021/07/23 08:24:38;;;;;;;22.37;18.33;;;;;;;27.16;54.36;99083.95;125140;1093;64303;-76
2021/07/23 08:27:06;;;;;;;19.67;17.57;;;;;;;27.26;54.04;99075.39;125018;1091;64268;-76
2021/07/23 08:29:34;;;;;;;11.33;10.27;;;;;;;27.21;52.80;99077.91;125054;1092;64281;-75
2021/07/23 08:32:08;;;;;;;8.70;7.90;;;;;;;27.08;51.95;99079.52;125037;1091;64213;-75
2021/07/23 08:34:36;;;;;;;10.93;8.77;;;;;;;26.92;52.08;99079.91;125069;1093;64268;-75
2021/07/23 08:37:05;;;;;;;11.03;8.97;;;;;;;26.98;51.73;99084.55;125034;1092;64361;-76
2021/07/23 08:39:32;;;;;;;9.50;8.60;;;;;;;26.97;52.52;99068.36;125014;1092;64262;-75
2021/07/23 08:42:26;;;;;;;12.80;9.60;;;;;;;26.89;51.27;99077.59;125064;1093;64435;-76
2021/07/23 08:44:54;;;;;;;6.97;6.33;;;;;;;26.60;48.50;99082.33;125036;1093;64307;-76
2021/07/23 08:47:22;;;;;;;7.70;6.93;;;;;;;26.11;50.46;99088.77;125056;1093;64237;-76
2021/07/23 08:49:51;;;;;;;8.13;6.80;;;;;;;26.14;51.45;99084.78;125081;1091;64284;-76
2021/07/23 08:52:46;;;;;;;11.33;9.83;;;;;;;26.23;51.40;99083.59;125033;1093;64265;-76
2021/07/23 08:55:16;;;;;;;9.50;7.47;;;;;;;26.58;51.73;99080.84;124993;1093;64284;-75
2021/07/23 08:57:44;;;;;;;11.80;9.00;;;;;;;26.90;51.51;99069.16;125071;1093;64280;-75
2021/07/23 09:00:18;;;;;;;10.87;8.47;;;;;;;26.84;49.19;99083.67;125059;1093;64290;-75
2021/07/23 09:03:00;;;;;;;13.67;7.93;;;;;;;26.74;50.33;99074.17;125024;1093;64188;-76
2021/07/23 09:05:28;;;;;;;7.83;6.97;;;;;;;27.01;50.06;99070.45;124988;1093;64281;-76
2021/07/23 09:08:00;;;;;;;9.25;7.10;;;;;;;27.15;49.07;99061.23;125016;1093;64292;-76
2021/07/23 09:10:30;;;;;;;7.00;6.40;;;;;;;27.18;48.81;99068.22;125084;1092;64430;-76
2021/07/23 09:13:01;;;;;;;;;;;;;;;27.13;47.39;99071.53;125124;1093;64268;-76
2021/07/23 09:15:40;;;;;;;6.43;5.57;;;;;;;27.16;47.90;99073.02;125160;1093;64159;-76
2021/07/23 09:18:20;;;;;;;6.70;5.90;;;;;;;27.24;47.12;99069.27;125039;1093;64263;-76
2021/07/23 09:20:59;;;;;;;9.47;6.30;;;;;;;27.23;46.53;99059.39;125028;1092;64292;-76
2021/07/23 09:23:38;;;;;;;7.13;6.43;;;;;;;27.25;47.48;99055.39;125073;1093;64756;-76
2021/07/23 09:26:12;;;;;;;6.60;5.87;;;;;;;27.33;47.03;99063.40;124997;1092;64386;-75
2021/07/23 09:28:40;;;;;;;6.57;5.13;;;;;;;27.32;46.98;99067.17;125005;1093;64268;-75
2021/07/23 09:31:12;;;;;;;5.90;5.33;;;;;;;27.38;47.17;99053.70;125026;1092;64284;-76
2021/07/23 09:33:41;;;;;;;7.23;6.53;;;;;;;27.61;47.51;99056.86;125045;1092;64281;-76
2021/07/23 09:36:10;;;;;;;7.07;5.63;;;;;;;27.75;47.44;99050.33;125097;1093;64303;-77
2021/07/23 09:38:42;;;;;;;5.97;5.30;;;;;;;27.86;47.40;99048.88;125055;1093;64274;-76
2021/07/23 09:41:24;;;;;;;5.57;5.07;;;;;;;28.03;47.90;99051.16;125042;1093;64187;-76
2021/07/23 09:44:02;;;;;;;6.40;5.90;;;;;;;28.12;47.21;99055.33;125039;1093;64264;-76
2021/07/23 09:46:33;;;;;;;9.73;6.87;;;;;;;28.13;47.09;99043.33;125010;1093;64290;-76
2021/07/23 09:49:24;;;;;;;8.13;6.13;;;;;;;28.05;45.07;99047.14;125042;1093;64313;-76
2021/07/23 09:51:55;;;;;;;6.57;5.93;;;;;;;27.96;45.67;99046.54;124988;1093;64684;-76
2021/07/23 09:54:23;;;;;;;8.03;5.87;;;;;;;28.14;46.71;99047.74;125086;1093;64221;-76
2021/07/23 09:56:50;;;;;;;9.07;6.90;;;;;;;28.36;46.40;99049.16;125098;1093;64360;-76
2021/07/23 09:59:41;;;;;;;7.53;5.90;;;;;;;28.65;46.70;99047.80;124981;1093;64419;-76
2021/07/23 10:02:19;;;;;;;9.03;6.37;;;;;;;28.82;45.21;99033.56;124816;1093;64236;-75
2021/07/23 10:05:06;;;;;;;6.60;6.00;;;;;;;28.55;44.82;99043.84;124772;1093;64772;-77
2021/07/23 10:07:46;;;;;;;7.80;5.73;;;;;;;28.51;42.09;99037.09;124843;1093;64374;-77
2021/07/23 10:10:13;;;;;;;;;;;;;;;28.38;43.03;99032.48;124842;1093;64188;-77
2021/07/23 10:12:43;;;;;;;8.60;5.97;;;;;;;28.11;42.71;99029.00;124815;1093;64323;-76
2021/07/23 10:15:13;;;;;;;7.70;6.30;;;;;;;28.13;42.20;99033.20;124851;1093;64347;-77
2021/07/23 10:17:41;;;;;;;7.37;6.67;;;;;;;27.94;41.86;99034.95;124851;1093;64273;-77
2021/07/23 10:20:09;;;;;;;7.67;6.90;;;;;;;27.82;42.48;99030.33;124806;1093;65387;-75
2021/07/23 10:22:37;;;;;;;8.05;6.90;;;;;;;27.84;42.06;99020.84;124825;1093;64241;-75
2021/07/23 10:25:06;;;;;;;8.63;6.97;;;;;;;27.70;42.44;99016.40;124758;1093;64284;-75
2021/07/23 10:27:34;;;;;;;7.45;6.75;;;;;;;27.76;42.20;99021.88;124807;1093;64279;-76
2021/07/23 10:30:01;;;;;;;7.10;6.40;;;;;;;27.82;42.40;99017.47;124818;1093;64295;-82
2021/07/23 10:32:33;;;;;;;8.17;5.97;;;;;;;27.81;41.88;99012.23;124930;1093;64218;-82
2021/07/23 10:35:16;;;;;;;5.87;5.37;;;;;;;27.86;41.64;99007.78;124939;1092;64265;-81
2021/07/23 10:37:43;;;;;;;7.20;5.77;;;;;;;27.85;40.64;99008.82;124878;1093;64332;-82
2021/07/23 10:40:11;;;;;;;9.33;6.40;;;;;;;27.62;40.49;99005.67;124840;1093;64328;-81
2021/07/23 10:42:40;;;;;;;7.35;6.55;;;;;;;27.31;39.25;99001.72;124891;1093;64287;-81
2021/07/23 10:45:08;;;;;;;6.33;5.80;;;;;;;27.28;40.83;98999.41;124907;1093;64306;-81
2021/07/23 10:47:37;;;;;;;7.77;6.20;;;;;;;27.38;40.63;98994.32;124889;1093;64284;-81
2021/07/23 10:50:07;;;;;;;7.83;6.98;;;;;;;27.57;40.33;98998.95;124898;1093;64207;-81
2021/07/23 10:52:38;;;;;;;7.10;6.50;;;;;;;27.74;40.94;98988.38;124950;1093;64245;-81
2021/07/23 10:55:19;;;;;;;8.10;6.33;;;;;;;27.96;41.87;98990.88;124923;1093;64337;-84
2021/07/23 10:58:05;;;;;;;7.40;6.43;;;;;;;28.34;42.17;98984.64;124880;1093;64280;-81
2021/07/23 11:00:46;;;;;;;7.37;6.63;;;;;;;28.63;41.76;98984.09;124854;1093;64358;-81
2021/07/23 11:03:37;;;;;;;8.03;6.97;;;;;;;28.91;41.87;98987.50;124836;1093;64377;-81
2021/07/23 11:06:21;;;;;;;6.93;6.23;;;;;;;29.14;40.86;98981.45;124890;1093;64213;-81
2021/07/23 11:08:52;;;;;;;8.00;6.77;;;;;;;29.33;40.76;98977.69;124880;1092;64287;-82
2021/07/23 11:11:24;;;;;;;8.73;7.47;;;;;;;29.38;40.18;98972.37;124898;1092;64261;-82
2021/07/23 11:13:51;;;;;;;8.50;7.30;;;;;;;29.28;40.25;98974.78;124871;1093;64357;-82
2021/07/23 11:16:22;;;;;;;8.20;7.40;;;;;;;29.27;39.88;98965.70;124842;1093;64185;-82
2021/07/23 11:18:57;;;;;;;7.10;6.40;;;;;;;29.25;39.83;98964.25;124910;1093;64320;-82
2021/07/23 11:21:35;;;;;;;7.50;6.47;;;;;;;29.25;40.08;98967.86;124895;1093;64264;-82
2021/07/23 11:24:11;;;;;;;7.98;7.05;;;;;;;29.23;39.10;98953.52;124919;1093;64161;-82